sensor_id;sensor_type;location;lat;lon;timestamp;P1;durP1;ratioP1;P2;durP2;ratioP2
8297;SDS011;4187;42.778;23.242;2024-02-26T00:02:14;23.10;;;17.30;;
8297;SDS011;4187;42.778;23.242;2024-02-26T00:04:42;22.57;;;16.73;;
8297;SDS011;4187;42.778;23.242;2024-02-26T00:07:09;24.50;;;16.47;;
8297;SDS011;4187;42.778;23.242;2024-02-26T00:09:36;24.60;;;17.13;;
8297;SDS011;4187;42.778;23.242;2024-02-26T00:12:03;21.23;;;15.10;;
8297;SDS011;4187;42.778;23.242;2024-02-26T00:14:30;20.87;;;16.23;;
8297;SDS011;4187;42.778;23.242;2024-02-26T00:16:57;22.77;;;17.47;;
8297;SDS011;4187;42.778;23.242;2024-02-26T00:19:24;21.73;;;16.70;;
8297;SDS011;4187;42.778;23.242;2024-02-26T00:21:52;22.67;;;16.40;;
8297;SDS011;4187;42.778;23.242;2024-02-26T00:24:20;27.20;;;18.63;;
8297;SDS011;4187;42.778;23.242;2024-02-26T00:26:47;26.50;;;19.43;;
8297;SDS011;4187;42.778;23.242;2024-02-26T00:29:18;35.03;;;21.50;;
8297;SDS011;4187;42.778;23.242;2024-02-26T00:31:44;30.67;;;20.90;;
8297;SDS011;4187;42.778;23.242;2024-02-26T00:34:11;33.40;;;22.53;;
8297;SDS011;4187;42.778;23.242;2024-02-26T00:36:38;28.73;;;19.97;;
8297;SDS011;4187;42.778;23.242;2024-02-26T00:39:06;26.63;;;19.60;;
8297;SDS011;4187;42.778;23.242;2024-02-26T00:41:37;26.97;;;20.13;;
8297;SDS011;4187;42.778;23.242;2024-02-26T00:44:04;21.23;;;16.50;;
8297;SDS011;4187;42.778;23.242;2024-02-26T00:46:31;21.67;;;17.30;;
8297;SDS011;4187;42.778;23.242;2024-02-26T00:48:58;23.60;;;17.23;;
8297;SDS011;4187;42.778;23.242;2024-02-26T00:51:25;30.10;;;18.77;;
8297;SDS011;4187;42.778;23.242;2024-02-26T00:53:52;24.63;;;18.20;;
8297;SDS011;4187;42.778;23.242;2024-02-26T00:56:21;25.30;;;18.53;;
8297;SDS011;4187;42.778;23.242;2024-02-26T00:58:48;39.90;;;23.50;;
8297;SDS011;4187;42.778;23.242;2024-02-26T01:01:15;52.03;;;28.13;;
8297;SDS011;4187;42.778;23.242;2024-02-26T01:03:42;40.37;;;22.60;;
8297;SDS011;4187;42.778;23.242;2024-02-26T01:06:09;36.33;;;20.53;;
8297;SDS011;4187;42.778;23.242;2024-02-26T01:08:36;27.90;;;17.70;;
8297;SDS011;4187;42.778;23.242;2024-02-26T01:11:03;23.43;;;17.67;;
8297;SDS011;4187;42.778;23.242;2024-02-26T01:13:31;25.50;;;16.50;;
8297;SDS011;4187;42.778;23.242;2024-02-26T01:15:58;23.33;;;16.33;;
8297;SDS011;4187;42.778;23.242;2024-02-26T01:18:25;35.53;;;27.60;;
8297;SDS011;4187;42.778;23.242;2024-02-26T01:20:52;27.30;;;18.87;;
8297;SDS011;4187;42.778;23.242;2024-02-26T01:23:19;22.37;;;18.03;;
8297;SDS011;4187;42.778;23.242;2024-02-26T01:25:46;28.97;;;20.20;;
8297;SDS011;4187;42.778;23.242;2024-02-26T01:28:13;23.13;;;17.53;;
8297;SDS011;4187;42.778;23.242;2024-02-26T01:30:42;22.87;;;17.50;;
8297;SDS011;4187;42.778;23.242;2024-02-26T01:33:09;29.83;;;21.13;;
8297;SDS011;4187;42.778;23.242;2024-02-26T01:35:35;27.10;;;19.43;;
8297;SDS011;4187;42.778;23.242;2024-02-26T01:38:02;23.20;;;15.90;;
8297;SDS011;4187;42.778;23.242;2024-02-26T01:40:29;30.40;;;23.90;;
8297;SDS011;4187;42.778;23.242;2024-02-26T01:42:56;29.67;;;21.47;;
8297;SDS011;4187;42.778;23.242;2024-02-26T01:45:23;32.97;;;22.83;;
8297;SDS011;4187;42.778;23.242;2024-02-26T01:47:51;35.17;;;23.57;;
8297;SDS011;4187;42.778;23.242;2024-02-26T01:50:19;73.50;;;36.83;;
8297;SDS011;4187;42.778;23.242;2024-02-26T01:52:47;53.73;;;29.90;;
8297;SDS011;4187;42.778;23.242;2024-02-26T01:55:15;41.27;;;24.77;;
8297;SDS011;4187;42.778;23.242;2024-02-26T01:57:43;28.03;;;20.73;;
8297;SDS011;4187;42.778;23.242;2024-02-26T02:00:12;22.50;;;16.60;;
8297;SDS011;4187;42.778;23.242;2024-02-26T02:02:41;31.30;;;22.50;;
8297;SDS011;4187;42.778;23.242;2024-02-26T02:05:11;24.30;;;16.03;;
8297;SDS011;4187;42.778;23.242;2024-02-26T02:07:39;21.50;;;16.63;;
8297;SDS011;4187;42.778;23.242;2024-02-26T02:10:07;21.10;;;17.40;;
8297;SDS011;4187;42.778;23.242;2024-02-26T02:12:36;23.30;;;17.70;;
8297;SDS011;4187;42.778;23.242;2024-02-26T02:15:05;21.57;;;16.97;;
8297;SDS011;4187;42.778;23.242;2024-02-26T02:17:33;19.60;;;16.53;;
8297;SDS011;4187;42.778;23.242;2024-02-26T02:20:00;22.60;;;17.77;;
8297;SDS011;4187;42.778;23.242;2024-02-26T02:22:28;24.87;;;17.77;;
8297;SDS011;4187;42.778;23.242;2024-02-26T02:24:57;22.03;;;17.17;;
8297;SDS011;4187;42.778;23.242;2024-02-26T02:27:24;27.80;;;22.67;;
8297;SDS011;4187;42.778;23.242;2024-02-26T02:29:51;25.10;;;20.67;;
8297;SDS011;4187;42.778;23.242;2024-02-26T02:32:18;25.10;;;19.40;;
8297;SDS011;4187;42.778;23.242;2024-02-26T02:34:46;25.90;;;19.63;;
8297;SDS011;4187;42.778;23.242;2024-02-26T02:37:13;28.10;;;18.90;;
8297;SDS011;4187;42.778;23.242;2024-02-26T02:39:41;25.00;;;18.40;;
8297;SDS011;4187;42.778;23.242;2024-02-26T02:42:08;32.13;;;22.07;;
8297;SDS011;4187;42.778;23.242;2024-02-26T02:44:35;27.47;;;18.83;;
8297;SDS011;4187;42.778;23.242;2024-02-26T02:47:02;16.80;;;14.27;;
8297;SDS011;4187;42.778;23.242;2024-02-26T02:49:29;21.30;;;14.83;;
8297;SDS011;4187;42.778;23.242;2024-02-26T02:51:56;15.13;;;13.33;;
8297;SDS011;4187;42.778;23.242;2024-02-26T02:54:23;14.83;;;12.53;;
8297;SDS011;4187;42.778;23.242;2024-02-26T02:56:51;14.30;;;11.93;;
8297;SDS011;4187;42.778;23.242;2024-02-26T02:59:18;16.93;;;13.23;;
8297;SDS011;4187;42.778;23.242;2024-02-26T03:01:45;19.03;;;13.60;;
8297;SDS011;4187;42.778;23.242;2024-02-26T03:04:12;17.37;;;13.27;;
8297;SDS011;4187;42.778;23.242;2024-02-26T03:06:38;16.77;;;13.70;;
8297;SDS011;4187;42.778;23.242;2024-02-26T03:09:05;20.77;;;14.03;;
8297;SDS011;4187;42.778;23.242;2024-02-26T03:11:32;20.63;;;14.57;;
8297;SDS011;4187;42.778;23.242;2024-02-26T03:14:00;16.23;;;13.27;;
8297;SDS011;4187;42.778;23.242;2024-02-26T03:16:27;18.87;;;13.63;;
8297;SDS011;4187;42.778;23.242;2024-02-26T03:18:54;18.73;;;14.23;;
8297;SDS011;4187;42.778;23.242;2024-02-26T03:21:20;19.30;;;16.20;;
8297;SDS011;4187;42.778;23.242;2024-02-26T03:23:47;20.40;;;15.67;;
8297;SDS011;4187;42.778;23.242;2024-02-26T03:26:14;18.93;;;15.60;;
8297;SDS011;4187;42.778;23.242;2024-02-26T03:28:41;19.57;;;16.33;;
8297;SDS011;4187;42.778;23.242;2024-02-26T03:31:09;22.87;;;16.27;;
8297;SDS011;4187;42.778;23.242;2024-02-26T03:33:37;18.53;;;16.07;;
8297;SDS011;4187;42.778;23.242;2024-02-26T03:36:04;17.20;;;14.20;;
8297;SDS011;4187;42.778;23.242;2024-02-26T03:38:32;22.77;;;16.37;;
8297;SDS011;4187;42.778;23.242;2024-02-26T03:40:59;19.20;;;14.13;;
8297;SDS011;4187;42.778;23.242;2024-02-26T03:43:26;23.93;;;17.67;;
8297;SDS011;4187;42.778;23.242;2024-02-26T03:45:52;20.40;;;16.00;;
8297;SDS011;4187;42.778;23.242;2024-02-26T03:48:21;17.00;;;14.53;;
8297;SDS011;4187;42.778;23.242;2024-02-26T03:50:47;19.27;;;15.20;;
8297;SDS011;4187;42.778;23.242;2024-02-26T03:53:14;20.83;;;14.67;;
8297;SDS011;4187;42.778;23.242;2024-02-26T03:55:41;23.27;;;14.97;;
8297;SDS011;4187;42.778;23.242;2024-02-26T03:58:08;21.00;;;16.37;;
8297;SDS011;4187;42.778;23.242;2024-02-26T04:00:35;26.20;;;17.00;;
8297;SDS011;4187;42.778;23.242;2024-02-26T04:03:02;18.70;;;15.73;;
8297;SDS011;4187;42.778;23.242;2024-02-26T04:05:30;23.37;;;17.33;;
8297;SDS011;4187;42.778;23.242;2024-02-26T04:07:57;28.13;;;22.40;;
8297;SDS011;4187;42.778;23.242;2024-02-26T04:10:24;22.93;;;16.10;;
8297;SDS011;4187;42.778;23.242;2024-02-26T04:12:50;22.87;;;17.87;;
8297;SDS011;4187;42.778;23.242;2024-02-26T04:15:17;20.90;;;16.93;;
8297;SDS011;4187;42.778;23.242;2024-02-26T04:17:44;23.43;;;16.43;;
8297;SDS011;4187;42.778;23.242;2024-02-26T04:20:13;24.37;;;18.30;;
8297;SDS011;4187;42.778;23.242;2024-02-26T04:22:43;23.70;;;17.17;;
8297;SDS011;4187;42.778;23.242;2024-02-26T04:25:10;24.97;;;17.83;;
8297;SDS011;4187;42.778;23.242;2024-02-26T04:27:38;33.87;;;19.37;;
8297;SDS011;4187;42.778;23.242;2024-02-26T04:30:05;26.80;;;15.87;;
8297;SDS011;4187;42.778;23.242;2024-02-26T04:32:32;33.80;;;20.43;;
8297;SDS011;4187;42.778;23.242;2024-02-26T04:34:59;22.87;;;16.97;;
8297;SDS011;4187;42.778;23.242;2024-02-26T04:37:26;18.00;;;13.50;;
8297;SDS011;4187;42.778;23.242;2024-02-26T04:39:57;17.37;;;13.77;;
8297;SDS011;4187;42.778;23.242;2024-02-26T04:42:24;17.87;;;13.83;;
8297;SDS011;4187;42.778;23.242;2024-02-26T04:44:51;26.40;;;18.23;;
8297;SDS011;4187;42.778;23.242;2024-02-26T04:47:18;52.93;;;30.23;;
8297;SDS011;4187;42.778;23.242;2024-02-26T04:49:47;49.10;;;28.10;;
8297;SDS011;4187;42.778;23.242;2024-02-26T04:52:14;46.00;;;25.47;;
8297;SDS011;4187;42.778;23.242;2024-02-26T04:54:40;53.60;;;29.33;;
8297;SDS011;4187;42.778;23.242;2024-02-26T04:57:08;63.43;;;34.27;;
8297;SDS011;4187;42.778;23.242;2024-02-26T04:59:35;50.67;;;23.97;;
8297;SDS011;4187;42.778;23.242;2024-02-26T05:02:02;32.73;;;18.77;;
8297;SDS011;4187;42.778;23.242;2024-02-26T05:04:29;32.07;;;19.33;;
8297;SDS011;4187;42.778;23.242;2024-02-26T05:06:56;26.77;;;19.43;;
8297;SDS011;4187;42.778;23.242;2024-02-26T05:09:23;24.57;;;17.43;;
8297;SDS011;4187;42.778;23.242;2024-02-26T05:11:50;29.70;;;21.17;;
8297;SDS011;4187;42.778;23.242;2024-02-26T05:14:18;34.20;;;21.43;;
8297;SDS011;4187;42.778;23.242;2024-02-26T05:16:44;30.23;;;19.98;;
8297;SDS011;4187;42.778;23.242;2024-02-26T05:19:12;32.33;;;20.07;;
8297;SDS011;4187;42.778;23.242;2024-02-26T05:21:39;29.33;;;20.47;;
8297;SDS011;4187;42.778;23.242;2024-02-26T05:24:07;32.17;;;23.07;;
8297;SDS011;4187;42.778;23.242;2024-02-26T05:26:34;28.30;;;18.13;;
8297;SDS011;4187;42.778;23.242;2024-02-26T05:29:01;25.00;;;15.20;;
8297;SDS011;4187;42.778;23.242;2024-02-26T05:31:29;19.73;;;14.90;;
8297;SDS011;4187;42.778;23.242;2024-02-26T05:33:56;24.33;;;14.70;;
8297;SDS011;4187;42.778;23.242;2024-02-26T05:36:23;18.60;;;16.20;;
8297;SDS011;4187;42.778;23.242;2024-02-26T05:38:50;17.67;;;13.60;;
8297;SDS011;4187;42.778;23.242;2024-02-26T05:41:17;17.20;;;13.23;;
8297;SDS011;4187;42.778;23.242;2024-02-26T05:43:48;18.57;;;14.37;;
8297;SDS011;4187;42.778;23.242;2024-02-26T05:46:16;19.57;;;14.90;;
8297;SDS011;4187;42.778;23.242;2024-02-26T05:48:44;30.63;;;20.17;;
8297;SDS011;4187;42.778;23.242;2024-02-26T05:51:11;34.37;;;22.50;;
8297;SDS011;4187;42.778;23.242;2024-02-26T05:53:38;23.80;;;19.07;;
8297;SDS011;4187;42.778;23.242;2024-02-26T05:56:05;26.67;;;17.83;;
8297;SDS011;4187;42.778;23.242;2024-02-26T05:58:32;22.53;;;18.30;;
8297;SDS011;4187;42.778;23.242;2024-02-26T06:00:59;21.80;;;17.33;;
8297;SDS011;4187;42.778;23.242;2024-02-26T06:03:26;23.23;;;17.33;;
8297;SDS011;4187;42.778;23.242;2024-02-26T06:05:54;26.70;;;18.23;;
8297;SDS011;4187;42.778;23.242;2024-02-26T06:08:21;25.40;;;18.03;;
8297;SDS011;4187;42.778;23.242;2024-02-26T06:10:48;25.87;;;20.23;;
8297;SDS011;4187;42.778;23.242;2024-02-26T06:13:15;26.03;;;19.60;;
8297;SDS011;4187;42.778;23.242;2024-02-26T06:15:42;25.07;;;18.53;;
8297;SDS011;4187;42.778;23.242;2024-02-26T06:18:08;24.73;;;19.57;;
8297;SDS011;4187;42.778;23.242;2024-02-26T06:20:35;26.40;;;19.57;;
8297;SDS011;4187;42.778;23.242;2024-02-26T06:23:03;26.57;;;19.47;;
8297;SDS011;4187;42.778;23.242;2024-02-26T06:25:30;32.13;;;24.17;;
8297;SDS011;4187;42.778;23.242;2024-02-26T06:27:57;33.23;;;26.33;;
8297;SDS011;4187;42.778;23.242;2024-02-26T06:30:24;34.40;;;26.90;;
8297;SDS011;4187;42.778;23.242;2024-02-26T06:32:51;30.90;;;24.07;;
8297;SDS011;4187;42.778;23.242;2024-02-26T06:35:18;30.90;;;24.83;;
8297;SDS011;4187;42.778;23.242;2024-02-26T06:37:44;25.70;;;19.90;;
8297;SDS011;4187;42.778;23.242;2024-02-26T06:40:13;24.70;;;19.20;;
8297;SDS011;4187;42.778;23.242;2024-02-26T06:42:39;23.25;;;18.02;;
8297;SDS011;4187;42.778;23.242;2024-02-26T06:45:09;28.63;;;17.42;;
8297;SDS011;4187;42.778;23.242;2024-02-26T06:47:35;20.83;;;15.57;;
8297;SDS011;4187;42.778;23.242;2024-02-26T06:50:03;18.58;;;14.43;;
8297;SDS011;4187;42.778;23.242;2024-02-26T06:52:30;19.70;;;14.48;;
8297;SDS011;4187;42.778;23.242;2024-02-26T06:54:57;18.40;;;14.68;;
8297;SDS011;4187;42.778;23.242;2024-02-26T06:57:25;22.10;;;14.70;;
8297;SDS011;4187;42.778;23.242;2024-02-26T06:59:52;20.15;;;15.88;;
8297;SDS011;4187;42.778;23.242;2024-02-26T07:02:18;22.33;;;16.75;;
8297;SDS011;4187;42.778;23.242;2024-02-26T07:04:45;27.70;;;20.50;;
8297;SDS011;4187;42.778;23.242;2024-02-26T07:07:12;36.42;;;25.20;;
8297;SDS011;4187;42.778;23.242;2024-02-26T07:09:41;42.17;;;28.23;;
8297;SDS011;4187;42.778;23.242;2024-02-26T07:12:08;39.97;;;27.98;;
8297;SDS011;4187;42.778;23.242;2024-02-26T07:14:36;39.70;;;26.27;;
8297;SDS011;4187;42.778;23.242;2024-02-26T07:17:03;49.55;;;31.90;;
8297;SDS011;4187;42.778;23.242;2024-02-26T07:19:30;46.15;;;30.65;;
8297;SDS011;4187;42.778;23.242;2024-02-26T07:21:57;41.75;;;26.10;;
8297;SDS011;4187;42.778;23.242;2024-02-26T07:24:25;36.10;;;22.63;;
8297;SDS011;4187;42.778;23.242;2024-02-26T07:26:52;30.73;;;21.70;;
8297;SDS011;4187;42.778;23.242;2024-02-26T07:29:19;25.48;;;19.98;;
8297;SDS011;4187;42.778;23.242;2024-02-26T07:31:47;26.98;;;19.27;;
8297;SDS011;4187;42.778;23.242;2024-02-26T07:34:14;26.80;;;17.73;;
8297;SDS011;4187;42.778;23.242;2024-02-26T07:36:41;23.63;;;18.77;;
8297;SDS011;4187;42.778;23.242;2024-02-26T07:39:08;25.45;;;21.15;;
8297;SDS011;4187;42.778;23.242;2024-02-26T07:41:34;25.98;;;19.65;;
8297;SDS011;4187;42.778;23.242;2024-02-26T07:44:04;28.00;;;20.58;;
8297;SDS011;4187;42.778;23.242;2024-02-26T07:46:31;28.00;;;20.48;;
8297;SDS011;4187;42.778;23.242;2024-02-26T07:48:59;26.77;;;20.67;;
8297;SDS011;4187;42.778;23.242;2024-02-26T07:51:26;25.05;;;18.05;;
8297;SDS011;4187;42.778;23.242;2024-02-26T07:53:53;22.13;;;17.10;;
8297;SDS011;4187;42.778;23.242;2024-02-26T07:56:19;19.38;;;16.55;;
8297;SDS011;4187;42.778;23.242;2024-02-26T07:58:46;20.20;;;15.40;;
8297;SDS011;4187;42.778;23.242;2024-02-26T08:01:13;18.90;;;15.00;;
8297;SDS011;4187;42.778;23.242;2024-02-26T08:03:40;19.02;;;15.15;;
8297;SDS011;4187;42.778;23.242;2024-02-26T08:06:09;17.88;;;15.43;;
8297;SDS011;4187;42.778;23.242;2024-02-26T08:08:35;17.42;;;14.43;;
8297;SDS011;4187;42.778;23.242;2024-02-26T08:11:02;22.23;;;16.08;;
8297;SDS011;4187;42.778;23.242;2024-02-26T08:13:29;17.80;;;15.77;;
8297;SDS011;4187;42.778;23.242;2024-02-26T08:15:56;21.20;;;15.93;;
8297;SDS011;4187;42.778;23.242;2024-02-26T08:18:24;21.63;;;17.38;;
8297;SDS011;4187;42.778;23.242;2024-02-26T08:20:50;20.33;;;16.92;;
8297;SDS011;4187;42.778;23.242;2024-02-26T08:23:19;19.85;;;15.35;;
8297;SDS011;4187;42.778;23.242;2024-02-26T08:25:45;20.63;;;14.77;;
8297;SDS011;4187;42.778;23.242;2024-02-26T08:28:13;19.73;;;16.30;;
8297;SDS011;4187;42.778;23.242;2024-02-26T08:30:39;20.00;;;17.15;;
8297;SDS011;4187;42.778;23.242;2024-02-26T08:33:06;26.02;;;17.05;;
8297;SDS011;4187;42.778;23.242;2024-02-26T08:35:33;19.20;;;16.13;;
8297;SDS011;4187;42.778;23.242;2024-02-26T08:38:00;14.32;;;12.57;;
8297;SDS011;4187;42.778;23.242;2024-02-26T08:40:28;15.43;;;13.05;;
8297;SDS011;4187;42.778;23.242;2024-02-26T08:42:55;12.57;;;11.27;;
8297;SDS011;4187;42.778;23.242;2024-02-26T08:45:22;14.00;;;10.60;;
8297;SDS011;4187;42.778;23.242;2024-02-26T08:47:51;12.68;;;11.30;;
8297;SDS011;4187;42.778;23.242;2024-02-26T08:50:18;11.95;;;10.68;;
8297;SDS011;4187;42.778;23.242;2024-02-26T08:52:45;16.90;;;12.50;;
8297;SDS011;4187;42.778;23.242;2024-02-26T08:55:15;14.73;;;10.65;;
8297;SDS011;4187;42.778;23.242;2024-02-26T08:57:43;12.27;;;10.80;;
8297;SDS011;4187;42.778;23.242;2024-02-26T09:00:10;16.85;;;11.25;;
8297;SDS011;4187;42.778;23.242;2024-02-26T09:02:38;12.15;;;10.65;;
8297;SDS011;4187;42.778;23.242;2024-02-26T09:05:05;14.90;;;10.88;;
8297;SDS011;4187;42.778;23.242;2024-02-26T09:07:32;11.80;;;10.57;;
8297;SDS011;4187;42.778;23.242;2024-02-26T09:09:59;12.68;;;11.32;;
8297;SDS011;4187;42.778;23.242;2024-02-26T09:12:26;15.45;;;11.07;;
8297;SDS011;4187;42.778;23.242;2024-02-26T09:14:54;14.20;;;11.32;;
8297;SDS011;4187;42.778;23.242;2024-02-26T09:17:22;14.82;;;11.57;;
8297;SDS011;4187;42.778;23.242;2024-02-26T09:19:49;14.38;;;11.23;;
8297;SDS011;4187;42.778;23.242;2024-02-26T09:22:16;15.50;;;12.88;;
8297;SDS011;4187;42.778;23.242;2024-02-26T09:24:43;13.90;;;10.57;;
8297;SDS011;4187;42.778;23.242;2024-02-26T09:27:09;16.77;;;12.75;;
8297;SDS011;4187;42.778;23.242;2024-02-26T09:29:36;17.55;;;11.27;;
8297;SDS011;4187;42.778;23.242;2024-02-26T09:32:05;12.52;;;10.27;;
8297;SDS011;4187;42.778;23.242;2024-02-26T09:34:32;17.80;;;12.43;;
8297;SDS011;4187;42.778;23.242;2024-02-26T09:36:59;12.82;;;10.48;;
8297;SDS011;4187;42.778;23.242;2024-02-26T09:39:26;10.38;;;9.27;;
8297;SDS011;4187;42.778;23.242;2024-02-26T09:41:53;11.18;;;9.13;;
8297;SDS011;4187;42.778;23.242;2024-02-26T09:44:20;13.10;;;10.30;;
8297;SDS011;4187;42.778;23.242;2024-02-26T09:46:47;14.75;;;11.27;;
8297;SDS011;4187;42.778;23.242;2024-02-26T09:49:18;11.30;;;9.07;;
8297;SDS011;4187;42.778;23.242;2024-02-26T09:51:47;11.95;;;9.63;;
8297;SDS011;4187;42.778;23.242;2024-02-26T09:54:16;9.85;;;8.65;;
8297;SDS011;4187;42.778;23.242;2024-02-26T09:56:43;9.80;;;8.32;;
8297;SDS011;4187;42.778;23.242;2024-02-26T09:59:15;11.00;;;9.13;;
8297;SDS011;4187;42.778;23.242;2024-02-26T10:01:44;10.60;;;8.57;;
8297;SDS011;4187;42.778;23.242;2024-02-26T10:04:12;11.82;;;8.77;;
8297;SDS011;4187;42.778;23.242;2024-02-26T10:06:41;10.75;;;9.13;;
8297;SDS011;4187;42.778;23.242;2024-02-26T10:09:09;11.55;;;7.93;;
8297;SDS011;4187;42.778;23.242;2024-02-26T10:11:37;9.88;;;7.43;;
8297;SDS011;4187;42.778;23.242;2024-02-26T10:14:08;9.65;;;7.45;;
8297;SDS011;4187;42.778;23.242;2024-02-26T10:16:35;8.77;;;6.85;;
8297;SDS011;4187;42.778;23.242;2024-02-26T10:19:02;11.55;;;6.68;;
8297;SDS011;4187;42.778;23.242;2024-02-26T10:21:29;7.50;;;6.00;;
8297;SDS011;4187;42.778;23.242;2024-02-26T10:23:57;7.63;;;5.55;;
8297;SDS011;4187;42.778;23.242;2024-02-26T10:26:24;10.40;;;7.35;;
8297;SDS011;4187;42.778;23.242;2024-02-26T10:28:51;7.22;;;6.10;;
8297;SDS011;4187;42.778;23.242;2024-02-26T10:31:18;6.93;;;6.00;;
8297;SDS011;4187;42.778;23.242;2024-02-26T10:33:45;5.53;;;5.03;;
8297;SDS011;4187;42.778;23.242;2024-02-26T10:36:12;6.90;;;5.68;;
8297;SDS011;4187;42.778;23.242;2024-02-26T10:38:38;6.72;;;4.90;;
8297;SDS011;4187;42.778;23.242;2024-02-26T10:41:07;8.02;;;6.00;;
8297;SDS011;4187;42.778;23.242;2024-02-26T10:43:39;6.18;;;4.75;;
8297;SDS011;4187;42.778;23.242;2024-02-26T10:46:07;7.88;;;5.32;;
8297;SDS011;4187;42.778;23.242;2024-02-26T10:48:34;8.18;;;5.43;;
8297;SDS011;4187;42.778;23.242;2024-02-26T10:51:02;6.95;;;4.78;;
8297;SDS011;4187;42.778;23.242;2024-02-26T10:53:29;6.15;;;5.55;;
8297;SDS011;4187;42.778;23.242;2024-02-26T10:55:58;6.18;;;5.05;;
8297;SDS011;4187;42.778;23.242;2024-02-26T10:58:31;5.10;;;4.50;;
8297;SDS011;4187;42.778;23.242;2024-02-26T11:00:58;6.28;;;5.03;;
8297;SDS011;4187;42.778;23.242;2024-02-26T11:03:26;8.13;;;5.40;;
8297;SDS011;4187;42.778;23.242;2024-02-26T11:05:53;7.95;;;5.70;;
8297;SDS011;4187;42.778;23.242;2024-02-26T11:08:21;11.07;;;6.20;;
8297;SDS011;4187;42.778;23.242;2024-02-26T11:10:50;11.18;;;5.47;;
8297;SDS011;4187;42.778;23.242;2024-02-26T11:13:19;8.07;;;6.40;;
8297;SDS011;4187;42.778;23.242;2024-02-26T11:15:49;10.50;;;6.10;;
8297;SDS011;4187;42.778;23.242;2024-02-26T11:18:18;8.25;;;5.40;;
8297;SDS011;4187;42.778;23.242;2024-02-26T11:20:47;6.40;;;5.80;;
8297;SDS011;4187;42.778;23.242;2024-02-26T11:23:15;8.73;;;5.28;;
8297;SDS011;4187;42.778;23.242;2024-02-26T11:25:42;7.60;;;5.20;;
8297;SDS011;4187;42.778;23.242;2024-02-26T11:28:10;7.05;;;5.75;;
8297;SDS011;4187;42.778;23.242;2024-02-26T11:30:40;6.13;;;5.57;;
8297;SDS011;4187;42.778;23.242;2024-02-26T11:33:13;10.52;;;5.47;;
8297;SDS011;4187;42.778;23.242;2024-02-26T11:35:41;6.13;;;4.63;;
8297;SDS011;4187;42.778;23.242;2024-02-26T11:38:08;6.15;;;5.35;;
8297;SDS011;4187;42.778;23.242;2024-02-26T11:40:43;7.25;;;5.28;;
8297;SDS011;4187;42.778;23.242;2024-02-26T11:43:10;6.57;;;4.97;;
8297;SDS011;4187;42.778;23.242;2024-02-26T11:45:50;9.15;;;4.82;;
8297;SDS011;4187;42.778;23.242;2024-02-26T11:48:23;9.10;;;4.70;;
8297;SDS011;4187;42.778;23.242;2024-02-26T11:50:51;7.43;;;4.63;;
8297;SDS011;4187;42.778;23.242;2024-02-26T11:53:22;7.28;;;4.47;;
8297;SDS011;4187;42.778;23.242;2024-02-26T11:58:40;4.55;;;4.10;;
8297;SDS011;4187;42.778;23.242;2024-02-26T12:04:05;10.30;;;4.22;;
8297;SDS011;4187;42.778;23.242;2024-02-26T12:06:43;5.32;;;4.22;;
8297;SDS011;4187;42.778;23.242;2024-02-26T12:09:12;8.80;;;5.60;;
8297;SDS011;4187;42.778;23.242;2024-02-26T12:11:39;6.93;;;4.60;;
8297;SDS011;4187;42.778;23.242;2024-02-26T12:14:07;10.82;;;4.93;;
8297;SDS011;4187;42.778;23.242;2024-02-26T12:16:35;6.18;;;4.38;;
8297;SDS011;4187;42.778;23.242;2024-02-26T12:19:08;6.30;;;4.68;;
8297;SDS011;4187;42.778;23.242;2024-02-26T12:21:36;8.30;;;4.78;;
8297;SDS011;4187;42.778;23.242;2024-02-26T12:24:07;5.95;;;4.85;;
8297;SDS011;4187;42.778;23.242;2024-02-26T12:26:37;7.18;;;5.53;;
8297;SDS011;4187;42.778;23.242;2024-02-26T12:29:04;6.05;;;4.60;;
8297;SDS011;4187;42.778;23.242;2024-02-26T12:31:31;10.07;;;5.63;;
8297;SDS011;4187;42.778;23.242;2024-02-26T12:33:58;8.23;;;4.43;;
8297;SDS011;4187;42.778;23.242;2024-02-26T12:36:30;5.72;;;4.95;;
8297;SDS011;4187;42.778;23.242;2024-02-26T12:38:57;8.10;;;6.40;;
8297;SDS011;4187;42.778;23.242;2024-02-26T12:41:25;10.73;;;6.13;;
8297;SDS011;4187;42.778;23.242;2024-02-26T12:43:53;7.75;;;5.40;;
8297;SDS011;4187;42.778;23.242;2024-02-26T12:46:21;5.25;;;4.35;;
8297;SDS011;4187;42.778;23.242;2024-02-26T12:48:48;9.18;;;5.00;;
8297;SDS011;4187;42.778;23.242;2024-02-26T12:51:15;7.10;;;4.30;;
8297;SDS011;4187;42.778;23.242;2024-02-26T12:53:45;9.77;;;5.47;;
8297;SDS011;4187;42.778;23.242;2024-02-26T12:56:15;7.13;;;5.13;;
8297;SDS011;4187;42.778;23.242;2024-02-26T12:58:43;9.40;;;5.45;;
8297;SDS011;4187;42.778;23.242;2024-02-26T13:01:13;10.43;;;7.13;;
8297;SDS011;4187;42.778;23.242;2024-02-26T13:03:42;6.72;;;5.13;;
8297;SDS011;4187;42.778;23.242;2024-02-26T13:06:10;4.45;;;3.60;;
8297;SDS011;4187;42.778;23.242;2024-02-26T13:08:37;7.53;;;4.85;;
8297;SDS011;4187;42.778;23.242;2024-02-26T13:11:05;9.18;;;5.68;;
8297;SDS011;4187;42.778;23.242;2024-02-26T13:13:33;11.23;;;4.82;;
8297;SDS011;4187;42.778;23.242;2024-02-26T13:16:04;6.97;;;4.90;;
8297;SDS011;4187;42.778;23.242;2024-02-26T13:18:33;4.75;;;4.03;;
8297;SDS011;4187;42.778;23.242;2024-02-26T13:21:08;7.03;;;4.65;;
8297;SDS011;4187;42.778;23.242;2024-02-26T13:23:36;4.78;;;4.28;;
8297;SDS011;4187;42.778;23.242;2024-02-26T13:26:05;7.35;;;4.68;;
8297;SDS011;4187;42.778;23.242;2024-02-26T13:28:33;6.40;;;4.32;;
8297;SDS011;4187;42.778;23.242;2024-02-26T13:31:00;5.05;;;4.25;;
8297;SDS011;4187;42.778;23.242;2024-02-26T13:33:30;6.28;;;4.05;;
8297;SDS011;4187;42.778;23.242;2024-02-26T13:35:57;6.05;;;3.50;;
8297;SDS011;4187;42.778;23.242;2024-02-26T13:38:25;6.97;;;3.90;;
8297;SDS011;4187;42.778;23.242;2024-02-26T13:40:52;6.68;;;3.70;;
8297;SDS011;4187;42.778;23.242;2024-02-26T13:43:21;5.60;;;4.00;;
8297;SDS011;4187;42.778;23.242;2024-02-26T13:45:48;6.93;;;4.03;;
8297;SDS011;4187;42.778;23.242;2024-02-26T13:48:15;6.68;;;4.72;;
8297;SDS011;4187;42.778;23.242;2024-02-26T13:50:42;5.30;;;4.45;;
8297;SDS011;4187;42.778;23.242;2024-02-26T13:53:10;6.68;;;4.03;;
8297;SDS011;4187;42.778;23.242;2024-02-26T13:55:39;9.07;;;4.35;;
8297;SDS011;4187;42.778;23.242;2024-02-26T13:58:07;6.07;;;3.83;;
8297;SDS011;4187;42.778;23.242;2024-02-26T14:00:36;7.63;;;3.72;;
8297;SDS011;4187;42.778;23.242;2024-02-26T14:03:03;9.52;;;6.53;;
8297;SDS011;4187;42.778;23.242;2024-02-26T14:05:30;6.82;;;4.35;;
8297;SDS011;4187;42.778;23.242;2024-02-26T14:07:57;6.70;;;4.45;;
8297;SDS011;4187;42.778;23.242;2024-02-26T14:10:24;6.05;;;4.15;;
8297;SDS011;4187;42.778;23.242;2024-02-26T14:12:51;6.72;;;4.82;;
8297;SDS011;4187;42.778;23.242;2024-02-26T14:15:18;9.65;;;5.03;;
8297;SDS011;4187;42.778;23.242;2024-02-26T14:17:46;7.18;;;4.35;;
8297;SDS011;4187;42.778;23.242;2024-02-26T14:20:21;5.95;;;4.03;;
8297;SDS011;4187;42.778;23.242;2024-02-26T14:22:48;7.50;;;6.35;;
8297;SDS011;4187;42.778;23.242;2024-02-26T14:25:14;13.70;;;8.48;;
8297;SDS011;4187;42.778;23.242;2024-02-26T14:27:41;12.48;;;7.70;;
8297;SDS011;4187;42.778;23.242;2024-02-26T14:30:08;16.20;;;10.00;;
8297;SDS011;4187;42.778;23.242;2024-02-26T14:32:35;10.77;;;8.02;;
8297;SDS011;4187;42.778;23.242;2024-02-26T14:35:05;5.18;;;3.83;;
8297;SDS011;4187;42.778;23.242;2024-02-26T14:37:33;4.68;;;3.67;;
8297;SDS011;4187;42.778;23.242;2024-02-26T14:39:59;5.07;;;4.25;;
8297;SDS011;4187;42.778;23.242;2024-02-26T14:42:27;7.55;;;4.80;;
8297;SDS011;4187;42.778;23.242;2024-02-26T14:44:54;8.38;;;4.03;;
8297;SDS011;4187;42.778;23.242;2024-02-26T14:47:21;6.40;;;4.80;;
8297;SDS011;4187;42.778;23.242;2024-02-26T14:49:48;7.32;;;3.85;;
8297;SDS011;4187;42.778;23.242;2024-02-26T14:52:18;5.07;;;4.55;;